createdAt,value
2017-07-26T00:01:27.256Z,99.90
2017-07-26T00:03:55.583Z,99.90
2017-07-26T00:06:23.895Z,99.90
2017-07-26T00:08:52.410Z,99.90
2017-07-26T00:11:21.486Z,99.90
2017-07-26T00:13:49.775Z,99.90
2017-07-26T00:16:18.875Z,99.90
2017-07-26T00:18:47.951Z,99.90
2017-07-26T00:21:16.287Z,99.90
2017-07-26T00:23:44.623Z,99.90
2017-07-26T00:26:12.972Z,99.90
2017-07-26T00:28:41.290Z,99.90
2017-07-26T00:31:10.386Z,99.90
2017-07-26T00:33:39.458Z,99.90
2017-07-26T00:36:07.879Z,99.90
2017-07-26T00:38:36.178Z,99.90
2017-07-26T00:41:04.487Z,99.90
2017-07-26T00:43:32.814Z,99.90
2017-07-26T00:46:01.134Z,99.90
2017-07-26T00:48:29.485Z,99.90
2017-07-26T00:50:57.801Z,99.90
2017-07-26T00:53:26.350Z,99.90
2017-07-26T00:55:55.471Z,99.90
2017-07-26T00:58:24.551Z,99.90
2017-07-26T01:00:52.867Z,99.90
2017-07-26T01:03:21.186Z,99.90
2017-07-26T01:05:49.504Z,99.90
2017-07-26T01:08:17.803Z,99.90
2017-07-26T01:10:46.139Z,99.90
2017-07-26T01:13:14.538Z,99.90
2017-07-26T01:15:43.023Z,99.90
2017-07-26T01:18:12.086Z,99.90
2017-07-26T01:20:40.391Z,99.90
2017-07-26T01:23:08.707Z,99.90
2017-07-26T01:25:37.278Z,99.90
2017-07-26T01:28:05.618Z,99.90
2017-07-26T01:30:33.918Z,99.90
2017-07-26T01:33:02.263Z,99.90
2017-07-26T01:35:30.559Z,99.90
2017-07-26T01:37:58.854Z,99.90
2017-07-26T01:40:27.914Z,99.90
2017-07-26T01:42:57.114Z,99.90
2017-07-26T01:45:26.189Z,99.90
2017-07-26T01:47:54.495Z,99.90
2017-07-26T01:50:22.819Z,99.90
2017-07-26T01:52:51.118Z,99.90
2017-07-26T01:55:19.440Z,99.90
2017-07-26T01:57:48.488Z,99.90
2017-07-26T02:00:16.866Z,99.90
2017-07-26T02:02:45.173Z,99.90
2017-07-26T02:05:14.270Z,99.90
2017-07-26T02:07:43.343Z,99.90
2017-07-26T02:10:11.683Z,99.90
2017-07-26T02:12:39.980Z,99.90
2017-07-26T02:15:08.288Z,99.90
2017-07-26T02:17:36.585Z,99.90
2017-07-26T02:20:05.362Z,99.90
2017-07-26T02:22:33.678Z,99.90
2017-07-26T02:25:01.980Z,99.90
2017-07-26T02:27:30.305Z,99.90
2017-07-26T02:29:58.600Z,99.90
2017-07-26T02:32:26.946Z,99.90
2017-07-26T02:34:55.258Z,99.90
2017-07-26T02:37:23.761Z,99.90
2017-07-26T02:39:52.070Z,99.90
2017-07-26T02:42:21.483Z,99.90
2017-07-26T02:44:50.542Z,99.90
2017-07-26T02:47:18.830Z,99.90
2017-07-26T02:49:47.189Z,99.90
2017-07-26T02:52:15.484Z,99.90
2017-07-26T02:54:43.810Z,99.90
2017-07-26T02:57:12.114Z,99.90
2017-07-26T02:59:40.440Z,99.90
2017-07-26T03:02:08.763Z,99.90
2017-07-26T03:04:37.086Z,99.90
2017-07-26T03:07:06.159Z,99.90
2017-07-26T03:09:34.660Z,99.90
2017-07-26T03:12:03.726Z,99.90
2017-07-26T03:14:32.030Z,99.90
2017-07-26T03:17:00.387Z,99.90
2017-07-26T03:19:28.694Z,99.90
2017-07-26T03:21:57.021Z,99.90
2017-07-26T03:24:25.318Z,99.90
2017-07-26T03:26:54.421Z,99.90
2017-07-26T03:29:23.489Z,99.90
2017-07-26T03:31:51.839Z,99.90
2017-07-26T03:34:20.166Z,99.90
2017-07-26T03:36:48.485Z,99.90
2017-07-26T03:39:16.798Z,99.90
2017-07-26T03:41:45.124Z,99.90
2017-07-26T03:44:13.446Z,99.90
2017-07-26T03:46:41.753Z,99.90
2017-07-26T03:49:10.073Z,99.90
2017-07-26T03:51:38.366Z,99.90
2017-07-26T03:54:06.690Z,99.90
2017-07-26T03:56:35.768Z,99.90
2017-07-26T03:59:04.108Z,99.90
2017-07-26T04:01:32.407Z,99.90
2017-07-26T04:04:00.750Z,99.90
2017-07-26T04:06:29.096Z,99.90
2017-07-26T04:08:58.516Z,99.90
2017-07-26T04:11:26.826Z,99.90
2017-07-26T04:13:55.166Z,99.90
2017-07-26T04:16:23.504Z,99.90
2017-07-26T04:18:51.809Z,99.90
2017-07-26T04:21:20.882Z,99.90
2017-07-26T04:23:49.174Z,99.90
2017-07-26T04:26:17.474Z,99.90
2017-07-26T04:28:45.791Z,99.90
2017-07-26T04:31:14.921Z,99.90
2017-07-26T04:33:43.986Z,99.90
2017-07-26T04:36:12.686Z,99.90
2017-07-26T04:38:40.995Z,99.90
2017-07-26T04:41:09.303Z,99.90
2017-07-26T04:43:37.650Z,99.90
2017-07-26T04:46:05.983Z,99.90
2017-07-26T04:48:34.348Z,99.90
2017-07-26T04:51:02.664Z,99.90
2017-07-26T04:53:31.067Z,99.90
2017-07-26T04:55:59.398Z,99.90
2017-07-26T04:58:27.742Z,99.90
2017-07-26T05:00:56.050Z,99.90
2017-07-26T05:03:24.374Z,99.90
2017-07-26T05:05:52.708Z,99.90
2017-07-26T05:08:21.922Z,99.90
2017-07-26T05:10:51.014Z,99.90
2017-07-26T05:13:19.352Z,99.90
2017-07-26T05:15:47.715Z,99.90
2017-07-26T05:18:16.047Z,99.90
2017-07-26T05:20:45.155Z,99.90
2017-07-26T05:23:13.528Z,99.90
2017-07-26T05:25:41.884Z,99.90
2017-07-26T05:28:10.996Z,99.90
2017-07-26T05:30:39.357Z,99.90
2017-07-26T05:33:07.639Z,99.90
2017-07-26T05:35:36.743Z,99.90
2017-07-26T05:38:05.059Z,99.90
2017-07-26T05:40:33.497Z,99.90
2017-07-26T05:43:02.589Z,99.90
2017-07-26T05:45:31.663Z,99.90
2017-07-26T05:48:00.902Z,99.90
2017-07-26T05:50:29.179Z,99.90
2017-07-26T05:52:57.727Z,99.90
2017-07-26T05:55:26.023Z,99.90
2017-07-26T05:57:54.366Z,99.90
2017-07-26T06:00:22.676Z,99.90
2017-07-26T06:02:51.792Z,99.90
2017-07-26T06:05:20.090Z,99.90
2017-07-26T06:07:48.516Z,99.90
2017-07-26T06:10:17.603Z,99.90
2017-07-26T06:12:45.906Z,99.90
2017-07-26T06:15:14.243Z,99.90
2017-07-26T06:17:42.542Z,99.90
2017-07-26T06:20:10.867Z,99.90
2017-07-26T06:22:39.168Z,99.90
2017-07-26T06:25:07.496Z,99.90
2017-07-26T06:27:35.827Z,99.90
2017-07-26T06:30:04.947Z,99.90
2017-07-26T06:32:34.085Z,99.90
2017-07-26T06:35:02.403Z,99.90
2017-07-26T06:37:30.711Z,99.90
2017-07-26T06:39:59.911Z,99.90
2017-07-26T06:42:28.977Z,99.90
2017-07-26T06:44:57.281Z,99.90
2017-07-26T06:47:25.623Z,99.90
2017-07-26T06:49:53.939Z,99.90
2017-07-26T06:52:22.628Z,99.90
2017-07-26T06:54:51.523Z,99.90
2017-07-26T06:57:19.842Z,99.90
2017-07-26T06:59:48.164Z,99.90
2017-07-26T07:02:16.487Z,99.90
2017-07-26T07:04:44.824Z,99.90
2017-07-26T07:07:13.288Z,99.90
2017-07-26T07:09:42.393Z,99.90
2017-07-26T07:12:10.709Z,99.90
2017-07-26T07:14:39.067Z,99.90
2017-07-26T07:17:08.189Z,99.90
2017-07-26T07:19:37.337Z,99.90
2017-07-26T07:22:05.674Z,99.90
2017-07-26T07:24:34.118Z,99.90
2017-07-26T07:27:02.443Z,99.90
2017-07-26T07:29:30.775Z,99.90
2017-07-26T07:31:59.123Z,99.90
2017-07-26T07:34:27.402Z,99.90
2017-07-26T07:36:55.740Z,99.90
2017-07-26T07:39:24.058Z,99.90
2017-07-26T07:41:53.131Z,99.90
2017-07-26T07:44:22.207Z,99.90
2017-07-26T07:46:50.530Z,99.90
2017-07-26T07:49:18.871Z,99.90
2017-07-26T07:51:47.302Z,99.90
2017-07-26T07:54:15.624Z,99.90
2017-07-26T07:56:44.716Z,99.90
2017-07-26T07:59:13.070Z,99.90
2017-07-26T08:01:41.395Z,99.90
2017-07-26T08:04:10.493Z,99.90
2017-07-26T08:06:39.570Z,99.90
2017-07-26T08:09:08.692Z,99.90
2017-07-26T08:11:37.794Z,99.90
2017-07-26T08:14:06.243Z,99.90
2017-07-26T08:16:35.323Z,99.90
2017-07-26T08:19:03.630Z,99.90
2017-07-26T08:21:32.719Z,99.90
2017-07-26T08:24:01.802Z,99.90
2017-07-26T08:26:30.126Z,99.90
2017-07-26T08:28:58.416Z,99.90
2017-07-26T08:31:26.757Z,99.90
2017-07-26T08:33:55.823Z,99.90
2017-07-26T08:36:24.269Z,99.90
2017-07-26T08:38:52.574Z,99.90
2017-07-26T08:41:20.882Z,99.90
2017-07-26T08:43:49.967Z,99.90
2017-07-26T08:46:18.299Z,99.90
2017-07-26T08:48:46.630Z,99.90
2017-07-26T08:51:14.957Z,99.90
2017-07-26T08:53:43.294Z,99.90
2017-07-26T08:56:11.601Z,99.90
2017-07-26T08:58:39.934Z,99.90
2017-07-26T09:01:08.224Z,99.90
2017-07-26T09:03:37.001Z,99.90
2017-07-26T09:06:05.315Z,99.90
2017-07-26T09:08:33.634Z,99.90
2017-07-26T09:11:02.737Z,99.90
2017-07-26T09:13:31.079Z,99.90
2017-07-26T09:15:59.418Z,99.90
2017-07-26T09:18:27.722Z,99.90
2017-07-26T09:20:56.267Z,99.90
2017-07-26T09:23:24.570Z,99.90
2017-07-26T09:25:53.013Z,99.90
2017-07-26T09:28:21.327Z,99.90
2017-07-26T09:30:49.866Z,99.90
2017-07-26T09:33:18.191Z,99.90
2017-07-26T09:35:46.515Z,99.90
2017-07-26T09:38:15.627Z,99.90
2017-07-26T09:40:43.995Z,99.90
2017-07-26T09:43:12.334Z,99.90
2017-07-26T09:45:40.738Z,99.90
2017-07-26T09:48:09.898Z,99.90
2017-07-26T09:50:38.288Z,99.90
2017-07-26T09:53:06.656Z,99.90
2017-07-26T09:55:34.970Z,99.90
2017-07-26T09:58:04.379Z,99.90
2017-07-26T10:00:33.598Z,99.90
2017-07-26T10:03:01.962Z,99.90
2017-07-26T10:05:30.294Z,99.90
2017-07-26T10:07:58.649Z,99.90
2017-07-26T10:10:27.011Z,99.90
2017-07-26T10:12:55.364Z,99.90
2017-07-26T10:15:23.856Z,99.90
2017-07-26T10:17:52.166Z,99.90
2017-07-26T10:20:20.604Z,99.90
2017-07-26T10:22:48.979Z,99.90
2017-07-26T10:25:17.459Z,99.90
2017-07-26T10:27:46.526Z,99.90
2017-07-26T10:30:15.652Z,99.90
2017-07-26T10:32:44.964Z,99.90
2017-07-26T10:35:13.279Z,99.90
2017-07-26T10:37:41.607Z,99.90
2017-07-26T10:40:09.983Z,99.90
2017-07-26T10:42:38.366Z,99.90
2017-07-26T10:45:06.739Z,99.90
2017-07-26T10:47:35.072Z,99.90
2017-07-26T10:50:03.399Z,99.90
2017-07-26T10:52:31.979Z,99.90
2017-07-26T10:55:00.364Z,99.90
2017-07-26T10:57:28.689Z,99.90
2017-07-26T10:59:57.838Z,99.90
2017-07-26T11:02:26.143Z,99.90
2017-07-26T11:04:54.570Z,99.90
2017-07-26T11:07:23.641Z,99.90
2017-07-26T11:09:52.176Z,99.90
2017-07-26T11:12:20.484Z,99.90
2017-07-26T11:14:48.801Z,99.90
2017-07-26T11:17:17.995Z,99.90
2017-07-26T11:19:46.451Z,99.90
2017-07-26T11:22:15.582Z,99.90
2017-07-26T11:24:43.894Z,99.90
2017-07-26T11:27:12.326Z,99.90
2017-07-26T11:29:41.407Z,99.90
2017-07-26T11:32:10.540Z,99.90
2017-07-26T11:34:38.903Z,99.90
2017-07-26T11:37:08.008Z,99.90
2017-07-26T11:39:36.379Z,99.90
2017-07-26T11:42:04.702Z,99.90
2017-07-26T11:44:33.007Z,99.90
2017-07-26T11:47:01.615Z,99.90
2017-07-26T11:49:30.666Z,99.90
2017-07-26T11:51:58.977Z,99.90
2017-07-26T11:54:27.346Z,99.90
2017-07-26T11:56:56.418Z,99.90
2017-07-26T11:59:24.757Z,99.90
2017-07-26T12:01:53.107Z,99.90
2017-07-26T12:04:22.310Z,99.90
2017-07-26T12:06:50.682Z,99.90
2017-07-26T12:09:19.033Z,99.90
2017-07-26T12:11:48.137Z,99.90
2017-07-26T12:14:16.455Z,99.90
2017-07-26T12:16:44.753Z,99.90
2017-07-26T12:19:13.111Z,99.90
2017-07-26T12:21:41.574Z,99.90
2017-07-26T12:24:09.947Z,99.90
2017-07-26T12:26:38.321Z,99.90
2017-07-26T12:29:06.634Z,99.90
2017-07-26T12:31:35.083Z,99.90
2017-07-26T12:34:03.530Z,99.90
2017-07-26T12:36:31.860Z,99.90
2017-07-26T12:39:01.978Z,99.90
2017-07-26T12:41:30.278Z,99.90
2017-07-26T12:43:58.903Z,99.90
2017-07-26T12:46:27.549Z,99.90
2017-07-26T12:48:56.070Z,99.90
2017-07-26T12:51:24.397Z,99.90
2017-07-26T12:53:52.716Z,99.90
2017-07-26T12:56:21.864Z,99.90
2017-07-26T12:58:50.176Z,99.90
2017-07-26T13:01:18.495Z,99.90
2017-07-26T13:03:46.797Z,99.90
2017-07-26T13:06:15.140Z,99.90
2017-07-26T13:08:43.524Z,99.90
2017-07-26T13:11:11.866Z,99.90
2017-07-26T13:13:40.929Z,99.90
2017-07-26T13:16:09.554Z,99.90
2017-07-26T13:18:37.939Z,99.90
2017-07-26T13:21:07.010Z,99.90
2017-07-26T13:23:35.409Z,99.90
2017-07-26T13:26:04.602Z,99.90
2017-07-26T13:28:32.983Z,99.90
2017-07-26T13:31:01.306Z,99.90
2017-07-26T13:33:29.634Z,99.90
2017-07-26T13:35:58.719Z,99.90
2017-07-26T13:38:27.315Z,99.90
2017-07-26T13:40:55.919Z,99.90
2017-07-26T13:43:24.280Z,99.90
2017-07-26T13:45:52.615Z,99.90
2017-07-26T13:48:21.032Z,99.90
2017-07-26T13:50:50.232Z,99.90
2017-07-26T13:53:18.515Z,99.90
2017-07-26T13:55:46.854Z,99.90
2017-07-26T13:58:15.170Z,99.90
2017-07-26T14:00:43.545Z,99.90
2017-07-26T14:03:12.020Z,99.90
2017-07-26T14:05:40.447Z,99.90
2017-07-26T14:08:08.772Z,99.90
2017-07-26T14:10:37.082Z,99.90
2017-07-26T14:13:05.640Z,99.90
2017-07-26T14:15:34.940Z,99.90
2017-07-26T14:18:03.251Z,99.90
2017-07-26T14:20:31.582Z,99.90
2017-07-26T14:23:00.787Z,99.90
2017-07-26T14:25:29.098Z,99.90
2017-07-26T14:27:57.438Z,99.90
2017-07-26T14:30:25.756Z,99.90
2017-07-26T14:32:54.202Z,99.90
2017-07-26T14:35:23.292Z,99.90
2017-07-26T14:37:52.483Z,99.90
2017-07-26T14:40:21.578Z,99.90
2017-07-26T14:42:50.890Z,99.90
2017-07-26T14:45:19.232Z,99.90
2017-07-26T14:47:47.522Z,99.90
2017-07-26T14:50:16.739Z,99.90
2017-07-26T14:52:45.819Z,99.90
2017-07-26T14:55:14.914Z,99.90
2017-07-26T14:57:43.399Z,99.90
2017-07-26T15:00:12.491Z,99.90
2017-07-26T15:02:41.553Z,99.90
2017-07-26T15:05:09.970Z,99.90
2017-07-26T15:07:38.261Z,99.90
2017-07-26T15:10:06.948Z,99.90
2017-07-26T15:12:35.257Z,99.90
2017-07-26T15:15:03.555Z,99.90
2017-07-26T15:17:31.901Z,99.90
2017-07-26T15:20:00.212Z,99.90
2017-07-26T15:22:28.528Z,99.90
2017-07-26T15:24:56.861Z,99.90
2017-07-26T15:27:25.970Z,99.90
2017-07-26T15:29:55.051Z,99.90
2017-07-26T15:32:23.681Z,99.90
2017-07-26T15:34:51.974Z,99.90
2017-07-26T15:37:20.315Z,99.90
2017-07-26T15:39:49.393Z,99.90
2017-07-26T15:42:17.673Z,99.90
2017-07-26T15:44:46.859Z,99.30
2017-07-26T15:47:15.259Z,99.30
2017-07-26T15:49:43.631Z,97.40
2017-07-26T15:52:12.723Z,96.20
2017-07-26T15:54:41.103Z,95.90
2017-07-26T15:57:09.508Z,96.70
2017-07-26T15:59:38.062Z,97.20
2017-07-26T16:02:06.386Z,98.30
2017-07-26T16:04:34.744Z,99.10
2017-07-26T16:07:03.943Z,98.70
2017-07-26T16:09:36.869Z,99.20
2017-07-26T16:12:06.128Z,95.10
2017-07-26T16:14:34.480Z,95.30
2017-07-26T16:17:02.823Z,93.60
2017-07-26T16:19:31.142Z,91.10
2017-07-26T16:21:59.529Z,87.80
2017-07-26T16:24:27.843Z,85.30
2017-07-26T16:26:56.472Z,87.00
2017-07-26T16:29:24.788Z,89.70
2017-07-26T16:31:53.122Z,92.60
2017-07-26T16:34:21.502Z,94.60
2017-07-26T16:36:49.892Z,95.30
2017-07-26T16:39:19.068Z,97.80
2017-07-26T16:41:48.162Z,98.90
2017-07-26T16:44:17.274Z,97.50
2017-07-26T16:46:46.384Z,98.70
2017-07-26T16:49:14.944Z,99.00
2017-07-26T16:51:44.235Z,99.90
2017-07-26T16:54:12.618Z,99.90
2017-07-26T16:56:40.971Z,99.90
2017-07-26T16:59:09.282Z,99.90
2017-07-26T17:01:37.654Z,99.90
2017-07-26T17:04:06.759Z,99.90
2017-07-26T17:06:35.961Z,99.90
2017-07-26T17:09:04.274Z,99.90
2017-07-26T17:11:32.570Z,99.90
2017-07-26T17:14:00.903Z,99.90
2017-07-26T17:16:29.369Z,99.90
2017-07-26T17:18:57.707Z,99.90
2017-07-26T17:21:26.024Z,99.90
2017-07-26T17:23:54.378Z,99.90
2017-07-26T17:26:22.761Z,99.90
2017-07-26T17:28:51.147Z,99.90
2017-07-26T17:31:19.483Z,99.90
2017-07-26T17:33:47.999Z,99.90
2017-07-26T17:36:16.387Z,99.90
2017-07-26T17:38:44.764Z,99.90
2017-07-26T17:41:13.219Z,99.90
2017-07-26T17:43:42.310Z,99.90
2017-07-26T17:46:10.625Z,99.90
2017-07-26T17:48:38.947Z,99.90
2017-07-26T17:51:07.569Z,99.90
2017-07-26T17:53:35.958Z,99.90
2017-07-26T17:56:05.424Z,99.90
2017-07-26T17:58:33.728Z,99.90
2017-07-26T18:01:02.099Z,99.90
2017-07-26T18:03:31.913Z,99.90
2017-07-26T18:06:00.291Z,99.90
2017-07-26T18:08:29.496Z,99.90
2017-07-26T18:10:58.585Z,99.90
2017-07-26T18:13:27.668Z,99.90
2017-07-26T18:15:56.046Z,99.90
2017-07-26T18:18:24.355Z,99.90
2017-07-26T18:20:52.690Z,99.90
2017-07-26T18:23:21.015Z,99.90
2017-07-26T18:25:49.346Z,99.90
2017-07-26T18:28:18.464Z,99.90
2017-07-26T18:30:46.795Z,99.90
2017-07-26T18:33:15.103Z,99.90
2017-07-26T18:35:44.195Z,99.90
2017-07-26T18:38:12.482Z,99.90
2017-07-26T18:40:42.412Z,99.90
2017-07-26T18:43:10.750Z,99.90
2017-07-26T18:45:39.055Z,99.90
2017-07-26T18:48:08.142Z,99.90
2017-07-26T18:50:37.206Z,99.90
2017-07-26T18:53:06.334Z,99.90
2017-07-26T18:55:34.632Z,99.90
2017-07-26T18:58:03.075Z,99.90
2017-07-26T19:00:31.354Z,99.90
2017-07-26T19:02:59.703Z,99.90
2017-07-26T19:05:28.822Z,99.90
2017-07-26T19:07:57.127Z,99.90
2017-07-26T19:10:25.455Z,99.90
2017-07-26T19:12:53.741Z,99.90
2017-07-26T19:15:22.076Z,99.90
2017-07-26T19:17:50.385Z,99.90
2017-07-26T19:20:19.525Z,99.90
2017-07-26T19:22:48.586Z,99.90
2017-07-26T19:25:16.898Z,99.90
2017-07-26T19:27:45.683Z,99.90
2017-07-26T19:30:14.168Z,99.90
2017-07-26T19:32:42.542Z,99.90
2017-07-26T19:35:11.711Z,99.90
2017-07-26T19:37:40.167Z,99.90
2017-07-26T19:40:08.600Z,99.90
2017-07-26T19:42:37.703Z,99.90
2017-07-26T19:45:06.775Z,99.90
2017-07-26T19:47:35.149Z,99.90
2017-07-26T19:50:04.228Z,99.90
2017-07-26T19:52:32.532Z,99.90
2017-07-26T19:55:00.835Z,99.90
2017-07-26T19:57:29.186Z,99.90
2017-07-26T19:59:58.250Z,99.90
2017-07-26T20:02:26.578Z,99.90
2017-07-26T20:04:54.902Z,99.90
2017-07-26T20:07:23.312Z,99.90
2017-07-26T20:09:51.658Z,99.90
2017-07-26T20:12:19.971Z,99.90
2017-07-26T20:14:48.326Z,99.90
2017-07-26T20:17:16.612Z,99.90
2017-07-26T20:19:44.939Z,99.90
2017-07-26T20:22:13.242Z,99.90
2017-07-26T20:24:41.586Z,99.90
2017-07-26T20:27:09.918Z,99.90
2017-07-26T20:29:39.047Z,99.90
2017-07-26T20:32:07.342Z,99.90
2017-07-26T20:34:35.657Z,99.90
2017-07-26T20:37:04.858Z,99.90
2017-07-26T20:39:33.255Z,99.90
2017-07-26T20:42:01.679Z,99.90
2017-07-26T20:44:30.759Z,99.90
2017-07-26T20:46:59.206Z,99.90
2017-07-26T20:49:27.481Z,99.90
2017-07-26T20:51:55.859Z,99.90
2017-07-26T20:54:24.991Z,99.90
2017-07-26T20:56:53.267Z,99.90
2017-07-26T20:59:21.698Z,99.90
2017-07-26T21:01:51.726Z,99.90
2017-07-26T21:04:20.246Z,99.90
2017-07-26T21:06:48.559Z,99.90
2017-07-26T21:09:16.846Z,99.90
2017-07-26T21:11:45.935Z,99.90
2017-07-26T21:14:15.012Z,99.90
2017-07-26T21:16:43.326Z,99.90
2017-07-26T21:19:11.627Z,99.90
2017-07-26T21:21:40.072Z,99.90
2017-07-26T21:24:09.168Z,99.90
2017-07-26T21:26:37.482Z,99.90
2017-07-26T21:29:05.794Z,99.90
2017-07-26T21:31:34.304Z,99.90
2017-07-26T21:34:03.379Z,99.90
2017-07-26T21:36:31.676Z,99.90
2017-07-26T21:39:00.765Z,99.90
2017-07-26T21:41:29.091Z,99.90
2017-07-26T21:43:57.419Z,99.90
2017-07-26T21:46:25.748Z,99.90
2017-07-26T21:48:54.101Z,99.90
2017-07-26T21:51:23.288Z,99.90
2017-07-26T21:53:51.718Z,99.90
2017-07-26T21:56:20.958Z,99.90
2017-07-26T21:58:50.041Z,99.90
2017-07-26T22:01:18.389Z,99.90
2017-07-26T22:03:46.704Z,99.90
2017-07-26T22:06:15.791Z,99.90
2017-07-26T22:08:44.116Z,99.90
2017-07-26T22:11:12.452Z,99.90
2017-07-26T22:13:41.501Z,99.90
2017-07-26T22:16:09.819Z,99.90
2017-07-26T22:18:38.886Z,99.90
2017-07-26T22:21:07.547Z,99.90
2017-07-26T22:23:35.838Z,99.90
2017-07-26T22:26:04.144Z,99.90
2017-07-26T22:28:33.241Z,99.90
2017-07-26T22:31:02.325Z,99.90
2017-07-26T22:33:30.655Z,99.90
2017-07-26T22:35:59.057Z,99.90
2017-07-26T22:38:27.431Z,99.90
2017-07-26T22:40:55.752Z,99.90
2017-07-26T22:43:24.097Z,99.90
2017-07-26T22:45:53.184Z,99.90
2017-07-26T22:48:21.654Z,99.90
2017-07-26T22:50:49.946Z,99.90
2017-07-26T22:53:18.279Z,99.90
2017-07-26T22:55:46.599Z,99.90
2017-07-26T22:58:15.036Z,99.90
2017-07-26T23:00:43.322Z,99.90
2017-07-26T23:03:11.626Z,99.90
2017-07-26T23:05:39.950Z,99.90
2017-07-26T23:08:09.003Z,99.90
2017-07-26T23:10:38.150Z,99.90
2017-07-26T23:13:06.469Z,99.90
2017-07-26T23:15:34.878Z,99.90
2017-07-26T23:18:03.178Z,99.90
2017-07-26T23:20:31.539Z,99.90
2017-07-26T23:22:59.910Z,99.90
2017-07-26T23:25:28.268Z,99.90
2017-07-26T23:27:56.662Z,99.90
2017-07-26T23:30:25.036Z,99.90
2017-07-26T23:32:54.059Z,99.90
2017-07-26T23:35:22.378Z,99.90
2017-07-26T23:37:52.255Z,99.90
2017-07-26T23:40:20.601Z,99.90
2017-07-26T23:42:48.982Z,99.90
2017-07-26T23:45:18.078Z,99.90
2017-07-26T23:47:47.172Z,99.90
2017-07-26T23:50:16.233Z,99.90
2017-07-26T23:52:44.651Z,99.90
2017-07-26T23:55:13.119Z,99.90
2017-07-26T23:57:41.507Z,99.90
